sensor_id;sensor_type;location;lat;lon;timestamp;temperature;humidity
11989;DHT22;6054;50.966;7.094;2022-11-15T00:01:57;17.60;53.70
11989;DHT22;6054;50.966;7.094;2022-11-15T00:04:25;17.70;53.60
11989;DHT22;6054;50.966;7.094;2022-11-15T00:06:52;17.70;53.50
11989;DHT22;6054;50.966;7.094;2022-11-15T00:09:19;17.70;53.60
11989;DHT22;6054;50.966;7.094;2022-11-15T00:11:45;17.70;54.00
11989;DHT22;6054;50.966;7.094;2022-11-15T00:14:12;17.70;53.80
11989;DHT22;6054;50.966;7.094;2022-11-15T00:16:39;17.70;53.80
11989;DHT22;6054;50.966;7.094;2022-11-15T00:19:06;17.70;53.80
11989;DHT22;6054;50.966;7.094;2022-11-15T00:21:34;17.80;54.00
11989;DHT22;6054;50.966;7.094;2022-11-15T00:24:01;17.80;54.00
11989;DHT22;6054;50.966;7.094;2022-11-15T00:26:27;18.00;54.00
11989;DHT22;6054;50.966;7.094;2022-11-15T00:28:54;17.80;54.00
11989;DHT22;6054;50.966;7.094;2022-11-15T00:31:21;17.90;54.10
11989;DHT22;6054;50.966;7.094;2022-11-15T00:33:47;17.80;54.00
11989;DHT22;6054;50.966;7.094;2022-11-15T00:36:14;18.00;54.30
11989;DHT22;6054;50.966;7.094;2022-11-15T00:38:42;18.00;54.50
11989;DHT22;6054;50.966;7.094;2022-11-15T00:41:09;17.90;54.40
11989;DHT22;6054;50.966;7.094;2022-11-15T00:43:36;17.90;54.30
11989;DHT22;6054;50.966;7.094;2022-11-15T00:46:03;17.90;54.30
11989;DHT22;6054;50.966;7.094;2022-11-15T00:48:29;18.00;54.40
11989;DHT22;6054;50.966;7.094;2022-11-15T00:50:57;18.00;54.80
11989;DHT22;6054;50.966;7.094;2022-11-15T00:53:24;18.00;54.80
11989;DHT22;6054;50.966;7.094;2022-11-15T00:55:52;18.00;54.70
11989;DHT22;6054;50.966;7.094;2022-11-15T00:58:19;18.00;54.90
11989;DHT22;6054;50.966;7.094;2022-11-15T01:00:46;18.10;54.80
11989;DHT22;6054;50.966;7.094;2022-11-15T01:03:13;18.10;54.90
11989;DHT22;6054;50.966;7.094;2022-11-15T01:05:40;18.10;54.90
11989;DHT22;6054;50.966;7.094;2022-11-15T01:08:12;18.10;54.90
11989;DHT22;6054;50.966;7.094;2022-11-15T01:10:39;18.20;55.20
11989;DHT22;6054;50.966;7.094;2022-11-15T01:13:07;18.40;55.40
11989;DHT22;6054;50.966;7.094;2022-11-15T01:15:34;18.20;54.70
11989;DHT22;6054;50.966;7.094;2022-11-15T01:18:01;18.20;54.90
11989;DHT22;6054;50.966;7.094;2022-11-15T01:20:27;18.20;54.80
11989;DHT22;6054;50.966;7.094;2022-11-15T01:22:54;18.30;54.70
11989;DHT22;6054;50.966;7.094;2022-11-15T01:25:21;18.50;55.10
11989;DHT22;6054;50.966;7.094;2022-11-15T01:27:48;18.30;54.60
11989;DHT22;6054;50.966;7.094;2022-11-15T01:30:16;18.30;54.70
11989;DHT22;6054;50.966;7.094;2022-11-15T01:32:43;18.30;54.80
11989;DHT22;6054;50.966;7.094;2022-11-15T01:35:09;18.30;54.70
11989;DHT22;6054;50.966;7.094;2022-11-15T01:37:36;18.50;54.80
11989;DHT22;6054;50.966;7.094;2022-11-15T01:40:04;18.30;54.70
11989;DHT22;6054;50.966;7.094;2022-11-15T01:42:31;18.40;55.30
11989;DHT22;6054;50.966;7.094;2022-11-15T01:44:57;18.40;55.00
11989;DHT22;6054;50.966;7.094;2022-11-15T01:47:28;18.40;54.90
11989;DHT22;6054;50.966;7.094;2022-11-15T01:50:00;18.40;55.30
11989;DHT22;6054;50.966;7.094;2022-11-15T01:52:30;18.50;55.40
11989;DHT22;6054;50.966;7.094;2022-11-15T01:55:02;18.50;55.20
11989;DHT22;6054;50.966;7.094;2022-11-15T01:57:30;18.50;55.30
11989;DHT22;6054;50.966;7.094;2022-11-15T01:59:57;18.50;55.10
11989;DHT22;6054;50.966;7.094;2022-11-15T02:02:26;18.50;55.20
11989;DHT22;6054;50.966;7.094;2022-11-15T02:04:53;18.70;55.20
11989;DHT22;6054;50.966;7.094;2022-11-15T02:07:21;18.50;55.00
11989;DHT22;6054;50.966;7.094;2022-11-15T02:09:49;18.60;55.10
11989;DHT22;6054;50.966;7.094;2022-11-15T02:12:19;18.60;55.20
11989;DHT22;6054;50.966;7.094;2022-11-15T02:14:48;18.60;55.20
11989;DHT22;6054;50.966;7.094;2022-11-15T02:17:41;18.80;55.40
11989;DHT22;6054;50.966;7.094;2022-11-15T02:20:51;18.70;55.30
11989;DHT22;6054;50.966;7.094;2022-11-15T02:23:50;18.70;55.30
11989;DHT22;6054;50.966;7.094;2022-11-15T02:26:52;18.70;55.20
11989;DHT22;6054;50.966;7.094;2022-11-15T02:29:28;18.60;55.10
11989;DHT22;6054;50.966;7.094;2022-11-15T02:32:05;18.70;55.20
11989;DHT22;6054;50.966;7.094;2022-11-15T02:34:42;18.70;55.10
11989;DHT22;6054;50.966;7.094;2022-11-15T02:37:15;18.70;55.30
11989;DHT22;6054;50.966;7.094;2022-11-15T02:39:49;18.70;55.20
11989;DHT22;6054;50.966;7.094;2022-11-15T02:42:21;18.70;55.30
11989;DHT22;6054;50.966;7.094;2022-11-15T02:45:09;18.90;55.50
11989;DHT22;6054;50.966;7.094;2022-11-15T02:47:43;18.70;55.40
11989;DHT22;6054;50.966;7.094;2022-11-15T02:50:12;18.70;55.40
11989;DHT22;6054;50.966;7.094;2022-11-15T02:52:39;18.80;55.40
11989;DHT22;6054;50.966;7.094;2022-11-15T02:55:27;18.70;55.10
11989;DHT22;6054;50.966;7.094;2022-11-15T02:58:02;18.70;55.60
11989;DHT22;6054;50.966;7.094;2022-11-15T03:00:34;19.00;55.80
11989;DHT22;6054;50.966;7.094;2022-11-15T03:03:19;18.70;55.50
11989;DHT22;6054;50.966;7.094;2022-11-15T03:05:53;18.70;55.60
11989;DHT22;6054;50.966;7.094;2022-11-15T03:08:28;18.80;55.50
11989;DHT22;6054;50.966;7.094;2022-11-15T03:11:02;18.90;55.60
11989;DHT22;6054;50.966;7.094;2022-11-15T03:13:35;18.80;55.60
11989;DHT22;6054;50.966;7.094;2022-11-15T03:16:06;18.80;55.60
11989;DHT22;6054;50.966;7.094;2022-11-15T03:18:37;18.80;55.60
11989;DHT22;6054;50.966;7.094;2022-11-15T03:21:08;18.90;55.60
11989;DHT22;6054;50.966;7.094;2022-11-15T03:23:36;18.80;55.50
11989;DHT22;6054;50.966;7.094;2022-11-15T03:26:06;18.80;55.50
11989;DHT22;6054;50.966;7.094;2022-11-15T03:28:37;18.80;55.50
11989;DHT22;6054;50.966;7.094;2022-11-15T03:31:05;18.80;55.50
11989;DHT22;6054;50.966;7.094;2022-11-15T03:33:57;19.00;55.60
11989;DHT22;6054;50.966;7.094;2022-11-15T03:36:25;18.80;55.60
11989;DHT22;6054;50.966;7.094;2022-11-15T03:38:54;18.80;55.50
11989;DHT22;6054;50.966;7.094;2022-11-15T03:41:27;18.80;55.60
11989;DHT22;6054;50.966;7.094;2022-11-15T03:43:59;18.80;55.60
11989;DHT22;6054;50.966;7.094;2022-11-15T03:46:32;18.80;55.50
11989;DHT22;6054;50.966;7.094;2022-11-15T03:49:05;18.80;55.50
11989;DHT22;6054;50.966;7.094;2022-11-15T03:51:33;18.80;55.50
11989;DHT22;6054;50.966;7.094;2022-11-15T03:54:02;19.10;55.30
11989;DHT22;6054;50.966;7.094;2022-11-15T03:56:29;19.00;55.40
11989;DHT22;6054;50.966;7.094;2022-11-15T03:58:56;18.90;54.90
11989;DHT22;6054;50.966;7.094;2022-11-15T04:01:23;18.90;55.10
11989;DHT22;6054;50.966;7.094;2022-11-15T04:03:50;19.00;55.20
11989;DHT22;6054;50.966;7.094;2022-11-15T04:06:18;19.00;54.90
11989;DHT22;6054;50.966;7.094;2022-11-15T04:08:45;19.00;54.70
11989;DHT22;6054;50.966;7.094;2022-11-15T04:11:11;18.90;54.80
11989;DHT22;6054;50.966;7.094;2022-11-15T04:13:38;19.00;55.00
11989;DHT22;6054;50.966;7.094;2022-11-15T04:16:05;19.00;54.80
11989;DHT22;6054;50.966;7.094;2022-11-15T04:18:32;19.00;55.00
11989;DHT22;6054;50.966;7.094;2022-11-15T04:20:59;19.00;54.80
11989;DHT22;6054;50.966;7.094;2022-11-15T04:23:44;19.00;55.00
11989;DHT22;6054;50.966;7.094;2022-11-15T04:26:28;19.00;55.20
11989;DHT22;6054;50.966;7.094;2022-11-15T04:28:55;19.10;54.80
11989;DHT22;6054;50.966;7.094;2022-11-15T04:31:39;19.00;55.00
11989;DHT22;6054;50.966;7.094;2022-11-15T04:34:06;19.10;55.00
11989;DHT22;6054;50.966;7.094;2022-11-15T04:36:33;19.10;54.80
11989;DHT22;6054;50.966;7.094;2022-11-15T04:39:18;19.10;55.10
11989;DHT22;6054;50.966;7.094;2022-11-15T04:41:45;19.10;54.80
11989;DHT22;6054;50.966;7.094;2022-11-15T04:44:12;19.10;54.80
11989;DHT22;6054;50.966;7.094;2022-11-15T04:46:39;19.10;54.90
11989;DHT22;6054;50.966;7.094;2022-11-15T04:49:05;19.20;54.70
11989;DHT22;6054;50.966;7.094;2022-11-15T04:51:32;19.20;54.70
11989;DHT22;6054;50.966;7.094;2022-11-15T04:53:59;19.20;54.80
11989;DHT22;6054;50.966;7.094;2022-11-15T04:56:27;19.20;54.70
11989;DHT22;6054;50.966;7.094;2022-11-15T04:58:54;19.20;54.70
11989;DHT22;6054;50.966;7.094;2022-11-15T05:01:20;19.30;54.70
11989;DHT22;6054;50.966;7.094;2022-11-15T05:03:47;19.20;54.70
11989;DHT22;6054;50.966;7.094;2022-11-15T05:06:31;19.50;55.00
11989;DHT22;6054;50.966;7.094;2022-11-15T05:08:58;19.20;54.70
11989;DHT22;6054;50.966;7.094;2022-11-15T05:11:26;19.20;54.80
11989;DHT22;6054;50.966;7.094;2022-11-15T05:13:53;19.10;54.70
11989;DHT22;6054;50.966;7.094;2022-11-15T05:16:20;19.20;54.80
11989;DHT22;6054;50.966;7.094;2022-11-15T05:18:50;19.20;54.70
11989;DHT22;6054;50.966;7.094;2022-11-15T05:21:18;19.20;55.00
11989;DHT22;6054;50.966;7.094;2022-11-15T05:23:45;19.20;55.00
11989;DHT22;6054;50.966;7.094;2022-11-15T05:26:12;19.20;54.60
11989;DHT22;6054;50.966;7.094;2022-11-15T05:28:40;19.20;55.00
11989;DHT22;6054;50.966;7.094;2022-11-15T05:31:10;19.20;54.30
11989;DHT22;6054;50.966;7.094;2022-11-15T05:33:37;19.30;55.00
11989;DHT22;6054;50.966;7.094;2022-11-15T05:36:09;19.40;55.10
11989;DHT22;6054;50.966;7.094;2022-11-15T05:38:38;19.30;55.00
11989;DHT22;6054;50.966;7.094;2022-11-15T05:41:05;19.30;54.60
11989;DHT22;6054;50.966;7.094;2022-11-15T05:43:34;19.30;54.90
11989;DHT22;6054;50.966;7.094;2022-11-15T05:46:04;19.30;55.10
11989;DHT22;6054;50.966;7.094;2022-11-15T05:48:31;19.30;54.70
11989;DHT22;6054;50.966;7.094;2022-11-15T05:50:58;19.30;54.80
11989;DHT22;6054;50.966;7.094;2022-11-15T05:53:26;19.30;54.90
11989;DHT22;6054;50.966;7.094;2022-11-15T05:55:53;19.30;54.90
11989;DHT22;6054;50.966;7.094;2022-11-15T05:58:20;19.30;54.40
11989;DHT22;6054;50.966;7.094;2022-11-15T06:00:47;19.30;54.40
11989;DHT22;6054;50.966;7.094;2022-11-15T06:03:15;19.50;54.60
11989;DHT22;6054;50.966;7.094;2022-11-15T06:05:42;19.30;54.00
11989;DHT22;6054;50.966;7.094;2022-11-15T06:08:09;19.30;53.90
11989;DHT22;6054;50.966;7.094;2022-11-15T06:10:35;19.20;54.00
11989;DHT22;6054;50.966;7.094;2022-11-15T06:13:04;19.20;54.10
11989;DHT22;6054;50.966;7.094;2022-11-15T06:15:32;19.20;54.40
11989;DHT22;6054;50.966;7.094;2022-11-15T06:17:59;19.20;54.20
11989;DHT22;6054;50.966;7.094;2022-11-15T06:20:29;19.20;54.40
11989;DHT22;6054;50.966;7.094;2022-11-15T06:22:59;19.20;54.30
11989;DHT22;6054;50.966;7.094;2022-11-15T06:25:26;19.20;54.30
11989;DHT22;6054;50.966;7.094;2022-11-15T06:27:54;19.20;54.20
11989;DHT22;6054;50.966;7.094;2022-11-15T06:30:22;19.20;54.20
11989;DHT22;6054;50.966;7.094;2022-11-15T06:32:49;19.20;54.10
11989;DHT22;6054;50.966;7.094;2022-11-15T06:35:16;19.20;53.70
11989;DHT22;6054;50.966;7.094;2022-11-15T06:37:44;19.20;53.90
11989;DHT22;6054;50.966;7.094;2022-11-15T06:40:11;19.10;53.60
11989;DHT22;6054;50.966;7.094;2022-11-15T06:42:38;19.10;53.50
11989;DHT22;6054;50.966;7.094;2022-11-15T06:45:05;19.10;53.70
11989;DHT22;6054;50.966;7.094;2022-11-15T06:47:32;19.10;54.10
11989;DHT22;6054;50.966;7.094;2022-11-15T06:49:59;19.10;53.80
11989;DHT22;6054;50.966;7.094;2022-11-15T06:52:26;19.10;53.80
11989;DHT22;6054;50.966;7.094;2022-11-15T06:54:59;19.10;53.80
11989;DHT22;6054;50.966;7.094;2022-11-15T06:57:25;19.10;53.50
11989;DHT22;6054;50.966;7.094;2022-11-15T06:59:52;19.10;53.80
11989;DHT22;6054;50.966;7.094;2022-11-15T07:02:19;19.00;53.80
11989;DHT22;6054;50.966;7.094;2022-11-15T07:04:45;19.00;53.80
11989;DHT22;6054;50.966;7.094;2022-11-15T07:07:12;19.00;53.70
11989;DHT22;6054;50.966;7.094;2022-11-15T07:09:39;19.00;53.60
11989;DHT22;6054;50.966;7.094;2022-11-15T07:12:07;19.00;53.70
11989;DHT22;6054;50.966;7.094;2022-11-15T07:14:34;19.20;53.80
11989;DHT22;6054;50.966;7.094;2022-11-15T07:17:03;19.10;53.70
11989;DHT22;6054;50.966;7.094;2022-11-15T07:19:30;19.00;53.60
11989;DHT22;6054;50.966;7.094;2022-11-15T07:21:56;19.00;53.50
11989;DHT22;6054;50.966;7.094;2022-11-15T07:24:23;19.10;53.40
11989;DHT22;6054;50.966;7.094;2022-11-15T07:26:50;19.00;53.10
11989;DHT22;6054;50.966;7.094;2022-11-15T07:29:18;19.00;53.10
11989;DHT22;6054;50.966;7.094;2022-11-15T07:31:45;19.20;53.30
11989;DHT22;6054;50.966;7.094;2022-11-15T07:34:11;19.00;53.00
11989;DHT22;6054;50.966;7.094;2022-11-15T07:36:38;19.00;53.10
11989;DHT22;6054;50.966;7.094;2022-11-15T07:39:05;19.00;53.10
11989;DHT22;6054;50.966;7.094;2022-11-15T07:41:32;19.00;53.10
11989;DHT22;6054;50.966;7.094;2022-11-15T07:43:58;19.00;52.90
11989;DHT22;6054;50.966;7.094;2022-11-15T07:46:27;19.00;52.90
11989;DHT22;6054;50.966;7.094;2022-11-15T07:48:53;19.00;52.70
11989;DHT22;6054;50.966;7.094;2022-11-15T07:51:20;19.00;52.70
11989;DHT22;6054;50.966;7.094;2022-11-15T07:53:47;19.00;52.70
11989;DHT22;6054;50.966;7.094;2022-11-15T07:56:14;19.00;52.70
11989;DHT22;6054;50.966;7.094;2022-11-15T07:58:41;19.00;52.90
11989;DHT22;6054;50.966;7.094;2022-11-15T08:01:09;19.10;52.50
11989;DHT22;6054;50.966;7.094;2022-11-15T08:03:37;19.10;52.90
11989;DHT22;6054;50.966;7.094;2022-11-15T08:06:05;19.10;52.50
11989;DHT22;6054;50.966;7.094;2022-11-15T08:08:31;19.10;52.80
11989;DHT22;6054;50.966;7.094;2022-11-15T08:10:58;19.10;52.30
11989;DHT22;6054;50.966;7.094;2022-11-15T08:13:25;19.20;52.70
11989;DHT22;6054;50.966;7.094;2022-11-15T08:15:56;19.20;52.40
11989;DHT22;6054;50.966;7.094;2022-11-15T08:18:23;19.40;52.80
11989;DHT22;6054;50.966;7.094;2022-11-15T08:20:51;19.20;52.10
11989;DHT22;6054;50.966;7.094;2022-11-15T08:23:18;19.20;51.90
11989;DHT22;6054;50.966;7.094;2022-11-15T08:25:45;19.20;51.80
11989;DHT22;6054;50.966;7.094;2022-11-15T08:28:11;19.30;52.00
11989;DHT22;6054;50.966;7.094;2022-11-15T08:30:40;19.30;51.80
11989;DHT22;6054;50.966;7.094;2022-11-15T08:33:10;19.30;52.10
11989;DHT22;6054;50.966;7.094;2022-11-15T08:35:37;19.30;52.00
11989;DHT22;6054;50.966;7.094;2022-11-15T08:38:06;19.30;51.70
11989;DHT22;6054;50.966;7.094;2022-11-15T08:40:32;19.30;51.50
11989;DHT22;6054;50.966;7.094;2022-11-15T08:42:59;19.30;51.50
11989;DHT22;6054;50.966;7.094;2022-11-15T08:45:27;19.40;51.50
11989;DHT22;6054;50.966;7.094;2022-11-15T08:47:54;19.40;51.70
11989;DHT22;6054;50.966;7.094;2022-11-15T08:50:21;19.40;51.10
11989;DHT22;6054;50.966;7.094;2022-11-15T08:52:48;19.40;51.30
11989;DHT22;6054;50.966;7.094;2022-11-15T08:55:16;19.50;51.40
11989;DHT22;6054;50.966;7.094;2022-11-15T08:57:43;19.50;52.00
11989;DHT22;6054;50.966;7.094;2022-11-15T09:00:11;19.50;51.30
11989;DHT22;6054;50.966;7.094;2022-11-15T09:02:37;19.60;51.60
11989;DHT22;6054;50.966;7.094;2022-11-15T09:05:06;19.60;51.30
11989;DHT22;6054;50.966;7.094;2022-11-15T09:07:33;19.60;51.40
11989;DHT22;6054;50.966;7.094;2022-11-15T09:10:00;19.60;51.10
11989;DHT22;6054;50.966;7.094;2022-11-15T09:12:28;19.60;51.10
11989;DHT22;6054;50.966;7.094;2022-11-15T09:14:54;19.90;51.10
11989;DHT22;6054;50.966;7.094;2022-11-15T09:17:21;19.90;50.90
11989;DHT22;6054;50.966;7.094;2022-11-15T09:19:48;19.90;50.90
11989;DHT22;6054;50.966;7.094;2022-11-15T09:22:15;19.80;50.80
11989;DHT22;6054;50.966;7.094;2022-11-15T09:24:41;19.90;50.20
11989;DHT22;6054;50.966;7.094;2022-11-15T09:27:08;19.90;50.20
11989;DHT22;6054;50.966;7.094;2022-11-15T09:29:36;19.90;50.10
11989;DHT22;6054;50.966;7.094;2022-11-15T09:32:03;19.90;49.70
11989;DHT22;6054;50.966;7.094;2022-11-15T09:34:30;19.90;50.00
11989;DHT22;6054;50.966;7.094;2022-11-15T09:36:57;20.00;49.80
11989;DHT22;6054;50.966;7.094;2022-11-15T09:39:24;20.00;49.30
11989;DHT22;6054;50.966;7.094;2022-11-15T09:42:02;20.10;49.40
11989;DHT22;6054;50.966;7.094;2022-11-15T09:44:59;20.10;49.30
11989;DHT22;6054;50.966;7.094;2022-11-15T09:47:55;20.30;49.00
11989;DHT22;6054;50.966;7.094;2022-11-15T09:50:32;20.20;48.60
11989;DHT22;6054;50.966;7.094;2022-11-15T09:53:00;20.30;48.40
11989;DHT22;6054;50.966;7.094;2022-11-15T09:55:34;20.20;47.80
11989;DHT22;6054;50.966;7.094;2022-11-15T09:58:10;20.30;48.00
11989;DHT22;6054;50.966;7.094;2022-11-15T10:00:46;20.50;48.00
11989;DHT22;6054;50.966;7.094;2022-11-15T10:03:23;20.40;47.10
11989;DHT22;6054;50.966;7.094;2022-11-15T10:05:54;20.40;47.70
11989;DHT22;6054;50.966;7.094;2022-11-15T10:08:47;20.40;47.30
11989;DHT22;6054;50.966;7.094;2022-11-15T10:11:19;20.40;47.30
11989;DHT22;6054;50.966;7.094;2022-11-15T10:13:49;20.40;47.10
11989;DHT22;6054;50.966;7.094;2022-11-15T10:16:45;20.50;47.20
11989;DHT22;6054;50.966;7.094;2022-11-15T10:19:22;20.60;47.40
11989;DHT22;6054;50.966;7.094;2022-11-15T10:21:59;20.60;47.10
11989;DHT22;6054;50.966;7.094;2022-11-15T10:24:28;20.70;46.90
11989;DHT22;6054;50.966;7.094;2022-11-15T10:26:57;20.70;46.80
11989;DHT22;6054;50.966;7.094;2022-11-15T10:29:24;20.80;46.00
11989;DHT22;6054;50.966;7.094;2022-11-15T10:31:52;20.80;46.10
11989;DHT22;6054;50.966;7.094;2022-11-15T10:34:21;21.00;46.00
11989;DHT22;6054;50.966;7.094;2022-11-15T10:36:55;21.00;46.30
11989;DHT22;6054;50.966;7.094;2022-11-15T10:39:23;21.10;46.30
11989;DHT22;6054;50.966;7.094;2022-11-15T10:41:50;21.20;46.20
11989;DHT22;6054;50.966;7.094;2022-11-15T10:44:23;21.20;44.60
11989;DHT22;6054;50.966;7.094;2022-11-15T10:50:05;21.30;43.20
11989;DHT22;6054;50.966;7.094;2022-11-15T10:52:34;21.30;42.80
11989;DHT22;6054;50.966;7.094;2022-11-15T10:55:12;21.30;42.60
11989;DHT22;6054;50.966;7.094;2022-11-15T10:57:50;21.30;42.10
11989;DHT22;6054;50.966;7.094;2022-11-15T11:00:28;21.30;42.00
11989;DHT22;6054;50.966;7.094;2022-11-15T11:03:00;21.40;41.50
11989;DHT22;6054;50.966;7.094;2022-11-15T11:05:30;21.40;41.60
11989;DHT22;6054;50.966;7.094;2022-11-15T11:08:00;21.50;41.50
11989;DHT22;6054;50.966;7.094;2022-11-15T11:10:28;21.50;41.10
11989;DHT22;6054;50.966;7.094;2022-11-15T11:12:54;21.50;40.90
11989;DHT22;6054;50.966;7.094;2022-11-15T11:15:24;21.60;40.90
11989;DHT22;6054;50.966;7.094;2022-11-15T11:18:00;21.60;40.40
11989;DHT22;6054;50.966;7.094;2022-11-15T11:20:36;21.60;40.40
11989;DHT22;6054;50.966;7.094;2022-11-15T11:23:16;21.70;40.30
11989;DHT22;6054;50.966;7.094;2022-11-15T11:25:52;21.70;40.10
11989;DHT22;6054;50.966;7.094;2022-11-15T11:28:32;21.70;39.90
11989;DHT22;6054;50.966;7.094;2022-11-15T11:31:13;21.80;39.50
11989;DHT22;6054;50.966;7.094;2022-11-15T11:33:49;22.00;39.40
11989;DHT22;6054;50.966;7.094;2022-11-15T11:36:24;22.00;39.50
11989;DHT22;6054;50.966;7.094;2022-11-15T11:39:19;21.80;38.70
11989;DHT22;6054;50.966;7.094;2022-11-15T11:41:55;21.90;38.90
11989;DHT22;6054;50.966;7.094;2022-11-15T11:44:30;21.90;39.10
11989;DHT22;6054;50.966;7.094;2022-11-15T11:47:00;22.00;39.80
11989;DHT22;6054;50.966;7.094;2022-11-15T11:49:33;22.00;39.00
11989;DHT22;6054;50.966;7.094;2022-11-15T11:52:07;22.00;38.50
11989;DHT22;6054;50.966;7.094;2022-11-15T11:54:40;22.00;38.20
11989;DHT22;6054;50.966;7.094;2022-11-15T11:57:16;22.00;38.10
11989;DHT22;6054;50.966;7.094;2022-11-15T11:59:48;22.00;38.00
11989;DHT22;6054;50.966;7.094;2022-11-15T12:02:33;21.90;37.90
11989;DHT22;6054;50.966;7.094;2022-11-15T12:05:09;22.00;38.30
11989;DHT22;6054;50.966;7.094;2022-11-15T12:07:40;22.10;38.60
11989;DHT22;6054;50.966;7.094;2022-11-15T12:10:17;22.00;38.40
11989;DHT22;6054;50.966;7.094;2022-11-15T12:12:51;22.10;38.40
11989;DHT22;6054;50.966;7.094;2022-11-15T12:15:23;22.00;38.50
11989;DHT22;6054;50.966;7.094;2022-11-15T12:17:50;22.10;38.60
11989;DHT22;6054;50.966;7.094;2022-11-15T12:20:20;22.00;38.40
11989;DHT22;6054;50.966;7.094;2022-11-15T12:22:54;22.00;38.30
11989;DHT22;6054;50.966;7.094;2022-11-15T12:25:27;22.00;38.30
11989;DHT22;6054;50.966;7.094;2022-11-15T12:27:59;22.00;38.50
11989;DHT22;6054;50.966;7.094;2022-11-15T12:30:39;22.20;39.00
11989;DHT22;6054;50.966;7.094;2022-11-15T12:33:32;22.20;39.20
11989;DHT22;6054;50.966;7.094;2022-11-15T12:36:02;22.10;39.50
11989;DHT22;6054;50.966;7.094;2022-11-15T12:38:56;22.00;39.30
11989;DHT22;6054;50.966;7.094;2022-11-15T12:41:25;22.10;39.60
11989;DHT22;6054;50.966;7.094;2022-11-15T12:43:52;22.10;39.80
11989;DHT22;6054;50.966;7.094;2022-11-15T12:49:03;22.30;40.40
11989;DHT22;6054;50.966;7.094;2022-11-15T12:52:06;22.10;40.30
11989;DHT22;6054;50.966;7.094;2022-11-15T12:55:01;22.10;40.60
11989;DHT22;6054;50.966;7.094;2022-11-15T12:57:43;22.10;40.90
11989;DHT22;6054;50.966;7.094;2022-11-15T13:00:43;22.10;40.70
11989;DHT22;6054;50.966;7.094;2022-11-15T13:03:23;22.00;41.20
11989;DHT22;6054;50.966;7.094;2022-11-15T13:06:00;22.00;41.50
11989;DHT22;6054;50.966;7.094;2022-11-15T13:08:54;22.00;41.70
11989;DHT22;6054;50.966;7.094;2022-11-15T13:11:48;22.00;41.50
11989;DHT22;6054;50.966;7.094;2022-11-15T13:14:40;21.90;41.80
11989;DHT22;6054;50.966;7.094;2022-11-15T13:17:34;22.00;42.10
11989;DHT22;6054;50.966;7.094;2022-11-15T13:20:21;21.90;41.90
11989;DHT22;6054;50.966;7.094;2022-11-15T13:22:50;21.90;42.10
11989;DHT22;6054;50.966;7.094;2022-11-15T13:25:22;21.90;42.00
11989;DHT22;6054;50.966;7.094;2022-11-15T13:27:51;22.10;42.40
11989;DHT22;6054;50.966;7.094;2022-11-15T13:30:21;21.90;42.10
11989;DHT22;6054;50.966;7.094;2022-11-15T13:32:48;21.90;42.20
11989;DHT22;6054;50.966;7.094;2022-11-15T13:35:20;22.00;41.90
11989;DHT22;6054;50.966;7.094;2022-11-15T13:37:48;21.90;42.30
11989;DHT22;6054;50.966;7.094;2022-11-15T13:40:24;21.90;42.40
11989;DHT22;6054;50.966;7.094;2022-11-15T13:42:54;21.90;42.60
11989;DHT22;6054;50.966;7.094;2022-11-15T13:45:21;21.80;42.00
11989;DHT22;6054;50.966;7.094;2022-11-15T13:47:58;21.80;42.30
11989;DHT22;6054;50.966;7.094;2022-11-15T13:50:27;21.80;43.10
11989;DHT22;6054;50.966;7.094;2022-11-15T13:52:56;21.80;42.70
11989;DHT22;6054;50.966;7.094;2022-11-15T13:55:24;21.80;42.70
11989;DHT22;6054;50.966;7.094;2022-11-15T13:57:55;21.90;42.70
11989;DHT22;6054;50.966;7.094;2022-11-15T14:00:33;21.90;42.70
11989;DHT22;6054;50.966;7.094;2022-11-15T14:03:07;21.90;42.90
11989;DHT22;6054;50.966;7.094;2022-11-15T14:05:34;21.90;42.90
11989;DHT22;6054;50.966;7.094;2022-11-15T14:08:03;21.90;42.30
11989;DHT22;6054;50.966;7.094;2022-11-15T14:10:38;22.00;42.90
11989;DHT22;6054;50.966;7.094;2022-11-15T14:13:27;22.00;42.90
11989;DHT22;6054;50.966;7.094;2022-11-15T14:15:54;22.00;42.90
11989;DHT22;6054;50.966;7.094;2022-11-15T14:18:40;22.10;42.40
11989;DHT22;6054;50.966;7.094;2022-11-15T14:21:08;22.00;43.10
11989;DHT22;6054;50.966;7.094;2022-11-15T14:23:35;22.00;43.00
11989;DHT22;6054;50.966;7.094;2022-11-15T14:26:01;22.00;42.80
11989;DHT22;6054;50.966;7.094;2022-11-15T14:28:31;22.20;43.30
11989;DHT22;6054;50.966;7.094;2022-11-15T14:31:06;22.00;43.30
11989;DHT22;6054;50.966;7.094;2022-11-15T14:33:34;21.90;43.30
11989;DHT22;6054;50.966;7.094;2022-11-15T14:36:04;22.20;43.50
11989;DHT22;6054;50.966;7.094;2022-11-15T14:38:32;21.90;43.30
11989;DHT22;6054;50.966;7.094;2022-11-15T14:40:59;21.90;42.80
11989;DHT22;6054;50.966;7.094;2022-11-15T14:43:26;21.90;43.10
11989;DHT22;6054;50.966;7.094;2022-11-15T14:45:55;21.90;43.10
11989;DHT22;6054;50.966;7.094;2022-11-15T14:48:22;21.90;43.10
11989;DHT22;6054;50.966;7.094;2022-11-15T14:50:49;21.90;43.10
11989;DHT22;6054;50.966;7.094;2022-11-15T14:53:17;21.80;43.30
11989;DHT22;6054;50.966;7.094;2022-11-15T14:58:20;21.90;43.60
11989;DHT22;6054;50.966;7.094;2022-11-15T15:00:47;21.80;43.50
11989;DHT22;6054;50.966;7.094;2022-11-15T15:03:15;21.90;43.50
11989;DHT22;6054;50.966;7.094;2022-11-15T15:05:43;21.80;42.90
11989;DHT22;6054;50.966;7.094;2022-11-15T15:08:10;22.00;43.90
11989;DHT22;6054;50.966;7.094;2022-11-15T15:10:38;21.80;43.30
11989;DHT22;6054;50.966;7.094;2022-11-15T15:13:08;21.80;43.80
11989;DHT22;6054;50.966;7.094;2022-11-15T15:15:37;21.80;43.80
11989;DHT22;6054;50.966;7.094;2022-11-15T15:18:05;21.80;43.40
11989;DHT22;6054;50.966;7.094;2022-11-15T15:20:35;22.00;43.80
11989;DHT22;6054;50.966;7.094;2022-11-15T15:23:05;22.00;43.90
11989;DHT22;6054;50.966;7.094;2022-11-15T15:25:33;21.90;43.60
11989;DHT22;6054;50.966;7.094;2022-11-15T15:28:01;21.90;43.90
11989;DHT22;6054;50.966;7.094;2022-11-15T15:30:29;22.10;43.90
11989;DHT22;6054;50.966;7.094;2022-11-15T15:32:56;21.90;43.70
11989;DHT22;6054;50.966;7.094;2022-11-15T15:35:23;21.90;43.50
11989;DHT22;6054;50.966;7.094;2022-11-15T15:37:55;21.90;43.90
11989;DHT22;6054;50.966;7.094;2022-11-15T15:40:23;21.90;43.40
11989;DHT22;6054;50.966;7.094;2022-11-15T15:42:50;21.80;43.70
11989;DHT22;6054;50.966;7.094;2022-11-15T15:45:18;22.00;43.50
11989;DHT22;6054;50.966;7.094;2022-11-15T15:47:46;22.00;43.30
11989;DHT22;6054;50.966;7.094;2022-11-15T15:50:23;21.80;43.80
11989;DHT22;6054;50.966;7.094;2022-11-15T15:52:52;21.90;44.10
11989;DHT22;6054;50.966;7.094;2022-11-15T15:55:20;21.80;43.80
11989;DHT22;6054;50.966;7.094;2022-11-15T15:57:48;21.80;43.90
11989;DHT22;6054;50.966;7.094;2022-11-15T16:00:16;21.80;44.10
11989;DHT22;6054;50.966;7.094;2022-11-15T16:02:43;21.80;44.00
11989;DHT22;6054;50.966;7.094;2022-11-15T16:05:11;21.80;43.70
11989;DHT22;6054;50.966;7.094;2022-11-15T16:07:38;21.80;44.10
11989;DHT22;6054;50.966;7.094;2022-11-15T16:10:17;21.70;44.20
11989;DHT22;6054;50.966;7.094;2022-11-15T16:12:46;21.70;44.30
11989;DHT22;6054;50.966;7.094;2022-11-15T16:15:13;21.70;44.10
11989;DHT22;6054;50.966;7.094;2022-11-15T16:17:42;21.80;44.20